Time,TemperatureF,DewpointF,PressureIn,WindDirection,WindDirectionDegrees,WindSpeedMPH,WindSpeedGustMPH,Humidity,HourlyPrecipIn,Conditions,Clouds,dailyrainin,SoftwareType,DateUTC
2013-08-12 00:00:00,71.2,70.9,29.96,ENE,67,0.0,-999.0,99,-99.99,,,0.00,Acu-Link.com,2013-08-12 04:00:00,
2013-08-12 00:15:00,71.2,70.9,29.97,ESE,112,0.0,-999.0,99,-99.99,,,0.00,Acu-Link.com,2013-08-12 04:15:00,
2013-08-12 00:31:00,70.9,70.6,29.96,SE,135,0.0,-999.0,99,-99.99,,,0.00,Acu-Link.com,2013-08-12 04:31:00,
2013-08-12 00:46:00,70.7,70.4,29.95,West,270,0.0,-999.0,99,-99.99,,,0.00,Acu-Link.com,2013-08-12 04:46:00,
2013-08-12 01:01:00,70.5,70.2,29.95,SW,225,0.0,-999.0,99,-99.99,,,0.00,Acu-Link.com,2013-08-12 05:01:00,
2013-08-12 01:16:00,70.5,70.2,29.96,North,0,0.0,-999.0,99,-99.99,,,0.00,Acu-Link.com,2013-08-12 05:16:00,
2013-08-12 01:31:00,70.3,70.0,29.95,SE,135,0.0,-999.0,99,-99.99,,,0.00,Acu-Link.com,2013-08-12 05:31:00,
2013-08-12 01:46:00,70.2,69.9,29.95,ESE,112,0.0,-999.0,99,-99.99,,,0.00,Acu-Link.com,2013-08-12 05:46:00,
2013-08-12 02:01:00,70.0,69.7,29.95,South,180,0.0,-999.0,99,-99.99,,,0.00,Acu-Link.com,2013-08-12 06:01:00,
2013-08-12 02:17:00,69.8,69.5,29.94,East,90,0.0,-999.0,99,-99.99,,,0.00,Acu-Link.com,2013-08-12 06:17:00,
2013-08-12 02:32:00,70.0,69.7,29.95,ESE,112,0.0,-999.0,99,-99.99,,,0.00,Acu-Link.com,2013-08-12 06:32:00,
2013-08-12 02:47:00,70.0,69.7,29.94,East,90,0.0,-999.0,99,-99.99,,,0.00,Acu-Link.com,2013-08-12 06:47:00,
2013-08-12 03:02:00,69.8,69.5,29.94,East,90,0.0,-999.0,99,-99.99,,,0.00,Acu-Link.com,2013-08-12 07:02:00,
2013-08-12 03:17:00,69.4,69.1,29.94,WSW,247,0.0,-999.0,99,-99.99,,,0.00,Acu-Link.com,2013-08-12 07:17:00,
2013-08-12 03:32:00,69.4,69.1,29.94,ENE,67,0.0,-999.0,99,-99.99,,,0.00,Acu-Link.com,2013-08-12 07:32:00,
2013-08-12 03:47:00,69.6,69.3,29.94,East,90,0.0,-999.0,99,-99.99,,,0.00,Acu-Link.com,2013-08-12 07:47:00,
2013-08-12 04:02:00,69.8,69.5,29.94,South,180,0.0,-999.0,99,-99.99,,,0.00,Acu-Link.com,2013-08-12 08:02:00,
2013-08-12 04:18:00,69.8,69.5,29.94,SE,135,0.0,-999.0,99,-99.99,,,0.00,Acu-Link.com,2013-08-12 08:18:00,
2013-08-12 04:34:00,69.8,69.5,29.94,ENE,67,0.0,-999.0,99,-99.99,,,0.00,Acu-Link.com,2013-08-12 08:34:00,
2013-08-12 04:49:00,69.4,69.1,29.95,ESE,112,0.0,-999.0,99,-99.99,,,0.00,Acu-Link.com,2013-08-12 08:49:00,
2013-08-12 05:04:00,69.4,69.1,29.95,ESE,112,0.0,-999.0,99,-99.99,,,0.00,Acu-Link.com,2013-08-12 09:04:00,
2013-08-12 05:19:00,69.4,69.1,29.95,SSE,157,0.0,-999.0,99,-99.99,,,0.00,Acu-Link.com,2013-08-12 09:19:00,
2013-08-12 05:34:00,69.3,69.0,29.95,ESE,112,0.0,-999.0,99,-99.99,,,0.00,Acu-Link.com,2013-08-12 09:34:00,
2013-08-12 05:49:00,69.1,68.8,29.95,ESE,112,0.0,-999.0,99,-99.99,,,0.00,Acu-Link.com,2013-08-12 09:49:00,
2013-08-12 06:04:00,69.1,68.8,29.95,NE,45,0.0,-999.0,99,-99.99,,,0.00,Acu-Link.com,2013-08-12 10:04:00,
2013-08-12 06:19:00,69.1,68.8,29.96,East,90,0.0,-999.0,99,-99.99,,,0.00,Acu-Link.com,2013-08-12 10:19:00,
2013-08-12 06:34:00,68.9,68.6,29.96,WNW,292,0.0,-999.0,99,-99.99,,,0.00,Acu-Link.com,2013-08-12 10:34:00,
2013-08-12 06:49:00,68.9,68.6,29.96,ESE,112,0.0,-999.0,99,-99.99,,,0.00,Acu-Link.com,2013-08-12 10:49:00,
2013-08-12 07:05:00,68.9,68.6,29.96,SW,225,0.0,-999.0,99,-99.99,,,0.00,Acu-Link.com,2013-08-12 11:05:00,
2013-08-12 07:20:00,69.1,68.8,29.96,South,180,0.0,-999.0,99,-99.99,,,0.00,Acu-Link.com,2013-08-12 11:20:00,
2013-08-12 07:35:00,69.8,69.5,29.96,SSE,157,0.0,-999.0,99,-99.99,,,0.00,Acu-Link.com,2013-08-12 11:35:00,
2013-08-12 07:50:00,70.2,69.9,29.96,East,90,0.0,-999.0,99,-99.99,,,0.00,Acu-Link.com,2013-08-12 11:50:00,
2013-08-12 08:05:00,71.2,70.9,29.96,SSE,157,0.0,-999.0,99,-99.99,,,0.00,Acu-Link.com,2013-08-12 12:05:00,
2013-08-12 08:20:00,72.7,72.4,29.96,SSW,202,0.0,-999.0,99,-99.99,,,0.00,Acu-Link.com,2013-08-12 12:20:00,
2013-08-12 08:36:00,73.9,73.6,29.96,SSE,157,0.0,-999.0,99,-99.99,,,0.00,Acu-Link.com,2013-08-12 12:36:00,
2013-08-12 08:51:00,74.5,74.2,29.96,SSW,202,0.0,-999.0,99,-99.99,,,0.00,Acu-Link.com,2013-08-12 12:51:00,
2013-08-12 09:06:00,79.0,75.8,29.96,ENE,67,0.0,-999.0,90,-99.99,,,0.00,Acu-Link.com,2013-08-12 13:06:00,
2013-08-12 09:21:00,84.2,76.2,29.96,SE,135,2.2,-999.0,77,-99.99,,,0.00,Acu-Link.com,2013-08-12 13:21:00,
2013-08-12 09:36:00,82.0,76.3,29.96,ESE,112,2.7,-999.0,83,-99.99,,,0.00,Acu-Link.com,2013-08-12 13:36:00,
2013-08-12 09:51:00,85.5,77.0,29.96,SE,135,0.0,-999.0,76,-99.99,,,0.00,Acu-Link.com,2013-08-12 13:51:00,
2013-08-12 10:06:00,86.7,77.4,29.96,South,180,3.2,-999.0,74,-99.99,,,0.00,Acu-Link.com,2013-08-12 14:06:00,
2013-08-12 10:21:00,88.0,78.2,29.96,SE,135,4.2,-999.0,73,-99.99,,,0.00,Acu-Link.com,2013-08-12 14:21:00,
2013-08-12 10:36:00,82.9,76.1,29.96,South,180,3.2,-999.0,80,-99.99,,,0.00,Acu-Link.com,2013-08-12 14:36:00,
2013-08-12 10:52:00,83.8,77.3,29.95,South,180,2.2,-999.0,81,-99.99,,,0.00,Acu-Link.com,2013-08-12 14:52:00,
2013-08-12 11:07:00,84.4,77.2,29.95,SSE,157,2.2,-999.0,79,-99.99,,,0.00,Acu-Link.com,2013-08-12 15:07:00,
2013-08-12 11:22:00,85.5,77.8,29.95,South,180,2.7,-999.0,78,-99.99,,,0.00,Acu-Link.com,2013-08-12 15:22:00,
2013-08-12 11:37:00,86.5,77.6,29.95,South,180,2.7,-999.0,75,-99.99,,,0.00,Acu-Link.com,2013-08-12 15:37:00,
2013-08-12 11:52:00,85.6,77.1,29.95,NNW,337,3.2,-999.0,76,-99.99,,,0.00,Acu-Link.com,2013-08-12 15:52:00,
2013-08-12 12:07:00,87.4,78.1,29.94,SSE,157,2.2,-999.0,74,-99.99,,,0.00,Acu-Link.com,2013-08-12 16:07:00,
2013-08-12 12:23:00,86.4,78.3,29.94,SSW,202,2.2,-999.0,77,-99.99,,,0.00,Acu-Link.com,2013-08-12 16:23:00,
2013-08-12 12:38:00,86.5,78.4,29.93,SSW,202,4.2,-999.0,77,-99.99,,,0.00,Acu-Link.com,2013-08-12 16:38:00,
2013-08-12 12:53:00,88.9,77.8,29.91,West,270,1.7,-999.0,70,-99.99,,,0.00,Acu-Link.com,2013-08-12 16:53:00,
2013-08-12 13:08:00,88.5,78.3,29.91,WSW,247,5.3,-999.0,72,-99.99,,,0.00,Acu-Link.com,2013-08-12 17:08:00,
2013-08-12 13:23:00,87.8,77.2,29.90,ENE,67,0.0,-999.0,71,-99.99,,,0.00,Acu-Link.com,2013-08-12 17:23:00,
2013-08-12 13:38:00,89.2,78.5,29.90,SE,135,0.0,-999.0,71,-99.99,,,0.00,Acu-Link.com,2013-08-12 17:38:00,
2013-08-12 13:53:00,80.8,76.6,29.91,SW,225,3.2,-999.0,87,-99.99,,,0.05,Acu-Link.com,2013-08-12 17:53:00,
2013-08-12 14:08:00,83.7,76.9,29.92,ENE,67,1.7,-999.0,80,-99.99,,,0.06,Acu-Link.com,2013-08-12 18:08:00,
2013-08-12 14:23:00,81.1,76.1,29.93,NNE,22,6.8,-999.0,85,-99.99,,,0.06,Acu-Link.com,2013-08-12 18:23:00,
2013-08-12 14:38:00,78.8,74.6,29.93,East,90,2.7,-999.0,87,-99.99,,,0.06,Acu-Link.com,2013-08-12 18:38:00,
2013-08-12 14:54:00,80.4,74.0,29.90,NE,45,4.7,-999.0,81,-99.99,,,0.06,Acu-Link.com,2013-08-12 18:54:00,
2013-08-12 15:09:00,81.0,73.9,29.89,SW,225,0.0,-999.0,79,-99.99,,,0.06,Acu-Link.com,2013-08-12 19:09:00,
2013-08-12 15:24:00,81.0,75.0,29.88,SSE,157,0.0,-999.0,82,-99.99,,,0.06,Acu-Link.com,2013-08-12 19:24:00,
2013-08-12 15:39:00,82.6,76.2,29.89,South,180,0.0,-999.0,81,-99.99,,,0.06,Acu-Link.com,2013-08-12 19:39:00,
2013-08-12 15:54:00,81.9,75.5,29.89,SW,225,0.0,-999.0,81,-99.99,,,0.06,Acu-Link.com,2013-08-12 19:54:00,
2013-08-12 16:09:00,78.4,75.2,29.89,South,180,0.0,-999.0,90,-99.99,,,0.06,Acu-Link.com,2013-08-12 20:09:00,
2013-08-12 16:24:00,78.1,75.3,29.89,ESE,112,0.0,-999.0,91,-99.99,,,0.06,Acu-Link.com,2013-08-12 20:24:00,
2013-08-12 16:39:00,77.4,75.2,29.89,WNW,292,0.0,-999.0,93,-99.99,,,0.06,Acu-Link.com,2013-08-12 20:39:00,
2013-08-12 16:54:00,78.3,76.4,29.87,ESE,112,0.0,-999.0,94,-99.99,,,0.06,Acu-Link.com,2013-08-12 20:54:00,
2013-08-12 17:10:00,81.1,77.2,29.87,SW,225,0.0,-999.0,88,-99.99,,,0.06,Acu-Link.com,2013-08-12 21:10:00,
2013-08-12 17:25:00,84.2,77.3,29.86,SSW,202,0.0,-999.0,80,-99.99,,,0.06,Acu-Link.com,2013-08-12 21:25:00,
2013-08-12 17:40:00,85.8,77.3,29.85,SW,225,0.0,-999.0,76,-99.99,,,0.06,Acu-Link.com,2013-08-12 21:40:00,
2013-08-12 17:55:00,87.1,78.2,29.84,NNE,22,0.0,-999.0,75,-99.99,,,0.06,Acu-Link.com,2013-08-12 21:55:00,
2013-08-12 18:10:00,87.8,78.0,29.84,SE,135,1.7,-999.0,73,-99.99,,,0.06,Acu-Link.com,2013-08-12 22:10:00,
2013-08-12 18:25:00,85.1,77.4,29.83,West,270,1.1,-999.0,78,-99.99,,,0.06,Acu-Link.com,2013-08-12 22:25:00,
2013-08-12 18:41:00,85.6,77.5,29.83,SW,225,2.2,-999.0,77,-99.99,,,0.06,Acu-Link.com,2013-08-12 22:41:00,
2013-08-12 18:56:00,84.0,77.1,29.83,ESE,112,4.2,-999.0,80,-99.99,,,0.06,Acu-Link.com,2013-08-12 22:56:00,
2013-08-12 19:11:00,83.1,76.6,29.83,WNW,292,0.0,-999.0,81,-99.99,,,0.06,Acu-Link.com,2013-08-12 23:11:00,
2013-08-12 19:26:00,82.6,76.9,29.84,SSW,202,0.0,-999.0,83,-99.99,,,0.06,Acu-Link.com,2013-08-12 23:26:00,
2013-08-12 19:41:00,80.6,77.4,29.83,SSE,157,0.0,-999.0,90,-99.99,,,0.06,Acu-Link.com,2013-08-12 23:41:00,
2013-08-12 19:56:00,80.2,77.0,29.83,South,180,0.0,-999.0,90,-99.99,,,0.06,Acu-Link.com,2013-08-12 23:56:00,
2013-08-12 20:11:00,79.5,77.0,29.84,SW,225,0.0,-999.0,92,-99.99,,,0.06,Acu-Link.com,2013-08-13 00:11:00,
2013-08-12 20:26:00,78.4,76.5,29.85,ESE,112,0.0,-999.0,94,-99.99,,,0.06,Acu-Link.com,2013-08-13 00:26:00,
2013-08-12 20:41:00,77.2,76.3,29.85,South,180,0.0,-999.0,97,-99.99,,,0.06,Acu-Link.com,2013-08-13 00:41:00,
2013-08-12 20:57:00,76.6,76.0,29.86,East,90,0.0,-999.0,98,-99.99,,,0.06,Acu-Link.com,2013-08-13 00:57:00,
2013-08-12 21:12:00,76.1,75.8,29.85,East,90,0.0,-999.0,99,-99.99,,,0.06,Acu-Link.com,2013-08-13 01:12:00,
2013-08-12 21:27:00,75.9,75.6,29.84,ESE,112,0.0,-999.0,99,-99.99,,,0.06,Acu-Link.com,2013-08-13 01:27:00,
2013-08-12 21:42:00,75.4,75.1,29.85,ENE,67,0.0,-999.0,99,-99.99,,,0.06,Acu-Link.com,2013-08-13 01:42:00,
2013-08-12 21:57:00,75.2,74.9,29.85,ESE,112,0.0,-999.0,99,-99.99,,,0.06,Acu-Link.com,2013-08-13 01:57:00,
2013-08-12 22:12:00,74.8,74.5,29.86,ESE,112,0.0,-999.0,99,-99.99,,,0.06,Acu-Link.com,2013-08-13 02:12:00,
2013-08-12 22:27:00,74.7,74.4,29.86,SSW,202,0.0,-999.0,99,-99.99,,,0.06,Acu-Link.com,2013-08-13 02:27:00,
2013-08-12 22:43:00,74.7,74.4,29.85,SSW,202,0.0,-999.0,99,-99.99,,,0.06,Acu-Link.com,2013-08-13 02:43:00,
2013-08-12 22:58:00,74.5,74.2,29.86,SW,225,0.0,-999.0,99,-99.99,,,0.06,Acu-Link.com,2013-08-13 02:58:00,
2013-08-12 23:13:00,74.5,74.2,29.87,SSE,157,0.0,-999.0,99,-99.99,,,0.06,Acu-Link.com,2013-08-13 03:13:00,
2013-08-12 23:28:00,74.7,74.4,29.86,SSE,157,0.0,-999.0,99,-99.99,,,0.07,Acu-Link.com,2013-08-13 03:28:00,
2013-08-12 23:43:00,74.8,74.5,29.86,ENE,67,0.0,-999.0,99,-99.99,,,0.08,Acu-Link.com,2013-08-13 03:43:00,
2013-08-12 23:58:00,74.8,74.5,29.85,ESE,112,2.7,-999.0,99,-99.99,,,0.10,Acu-Link.com,2013-08-13 03:58:00,